createdAt,value
2023-01-29T00:00:12.618Z,5.57
2023-01-29T00:02:40.074Z,5.97
2023-01-29T00:05:26.005Z,5.68
2023-01-29T00:07:56.710Z,5.40
2023-01-29T00:10:27.284Z,4.93
2023-01-29T00:12:55.371Z,4.90
2023-01-29T00:15:23.021Z,5.37
2023-01-29T00:17:50.638Z,4.88
2023-01-29T00:20:18.708Z,4.72
2023-01-29T00:22:46.680Z,4.60
2023-01-29T00:25:14.265Z,4.65
2023-01-29T00:27:41.880Z,3.83
2023-01-29T00:30:13.270Z,4.70
2023-01-29T00:32:43.584Z,4.18
2023-01-29T00:35:12.099Z,3.83
2023-01-29T00:37:39.698Z,3.70
2023-01-29T00:40:10.176Z,3.53
2023-01-29T00:42:56.708Z,3.70
2023-01-29T00:45:24.264Z,3.25
2023-01-29T00:47:51.895Z,3.47
2023-01-29T00:50:19.700Z,3.03
2023-01-29T00:52:48.899Z,3.07
2023-01-29T00:55:16.697Z,28.63
2023-01-29T00:57:44.471Z,21.15
2023-01-29T01:00:15.489Z,7.07
2023-01-29T01:03:01.639Z,5.75
2023-01-29T01:05:30.787Z,3.27
2023-01-29T01:07:59.330Z,3.80
2023-01-29T01:10:30.597Z,3.30
2023-01-29T01:13:04.277Z,3.00
2023-01-29T01:15:35.961Z,3.33
2023-01-29T01:18:04.754Z,3.63
2023-01-29T01:20:36.015Z,3.35
2023-01-29T01:23:04.007Z,3.88
2023-01-29T01:25:31.788Z,3.00
2023-01-29T01:30:45.295Z,2.93
2023-01-29T01:33:13.123Z,2.63
2023-01-29T01:35:42.017Z,3.00
2023-01-29T01:38:09.880Z,3.72
2023-01-29T01:40:37.699Z,3.58
2023-01-29T01:43:06.469Z,3.27
2023-01-29T01:45:37.415Z,3.83
2023-01-29T01:48:07.766Z,3.20
2023-01-29T01:50:50.414Z,2.88
2023-01-29T01:53:24.348Z,2.70
2023-01-29T01:55:59.273Z,3.07
2023-01-29T01:58:33.813Z,2.75
2023-01-29T02:01:01.885Z,3.42
2023-01-29T02:03:52.051Z,2.95
2023-01-29T02:06:39.377Z,4.20
2023-01-29T02:09:32.684Z,2.93
2023-01-29T02:12:01.587Z,3.28
2023-01-29T02:14:30.051Z,3.30
2023-01-29T02:16:58.183Z,3.25
2023-01-29T02:19:56.453Z,3.10
2023-01-29T02:22:48.572Z,3.70
2023-01-29T02:25:43.815Z,2.80
2023-01-29T02:28:49.136Z,2.88
2023-01-29T02:31:39.275Z,2.08
2023-01-29T02:34:55.175Z,3.97
2023-01-29T02:37:33.022Z,2.90
2023-01-29T02:40:29.190Z,3.47
2023-01-29T02:43:06.556Z,3.00
2023-01-29T02:45:49.892Z,2.10
2023-01-29T02:48:24.015Z,2.42
2023-01-29T02:51:05.708Z,2.40
2023-01-29T02:53:54.164Z,2.40
2023-01-29T02:56:35.456Z,3.10
2023-01-29T02:59:17.031Z,2.63
2023-01-29T03:01:53.344Z,2.80
2023-01-29T03:04:26.382Z,2.70
2023-01-29T03:07:10.314Z,2.60
2023-01-29T03:09:45.736Z,2.70
2023-01-29T03:12:34.550Z,2.50
2023-01-29T03:15:28.706Z,2.70
2023-01-29T03:18:27.139Z,2.87
2023-01-29T03:21:04.223Z,2.67
2023-01-29T03:23:53.448Z,3.50
2023-01-29T03:26:41.316Z,3.13
2023-01-29T03:29:29.818Z,3.40
2023-01-29T03:32:04.297Z,3.13
2023-01-29T03:34:39.256Z,3.20
2023-01-29T03:37:40.323Z,3.45
2023-01-29T03:40:10.005Z,2.97
2023-01-29T03:42:53.051Z,2.45
2023-01-29T03:45:39.070Z,2.60
2023-01-29T03:48:25.397Z,2.90
2023-01-29T03:51:01.977Z,3.20
2023-01-29T03:53:44.169Z,3.13
2023-01-29T03:56:31.580Z,3.38
2023-01-29T03:59:12.021Z,3.33
2023-01-29T04:02:05.439Z,3.55
2023-01-29T04:04:38.572Z,3.42
2023-01-29T04:07:34.990Z,3.72
2023-01-29T04:10:19.501Z,3.55
2023-01-29T04:13:02.249Z,3.37
2023-01-29T04:15:35.391Z,3.65
2023-01-29T04:18:05.982Z,3.30
2023-01-29T04:20:44.243Z,3.20
2023-01-29T04:23:24.048Z,9.40
2023-01-29T04:26:13.232Z,3.90
2023-01-29T04:28:40.863Z,3.50
2023-01-29T04:31:12.289Z,3.03
2023-01-29T04:33:54.579Z,2.95
2023-01-29T04:36:38.498Z,2.42
2023-01-29T04:39:21.436Z,2.50
2023-01-29T04:42:13.798Z,2.95
2023-01-29T04:44:54.375Z,3.40
2023-01-29T04:47:30.760Z,3.90
2023-01-29T04:50:07.501Z,3.70
2023-01-29T04:53:08.216Z,3.80
2023-01-29T04:55:42.633Z,4.00
2023-01-29T04:58:25.528Z,4.03
2023-01-29T05:00:55.151Z,3.60
2023-01-29T05:03:25.983Z,3.30
2023-01-29T05:05:55.699Z,3.43
2023-01-29T05:08:25.455Z,3.40
2023-01-29T05:10:55.383Z,3.28
2023-01-29T05:13:24.795Z,3.05
2023-01-29T05:16:18.785Z,3.20
2023-01-29T05:18:46.983Z,3.80
2023-01-29T05:21:14.699Z,3.67
2023-01-29T05:23:53.334Z,3.70
2023-01-29T05:26:40.205Z,4.13
2023-01-29T05:29:10.018Z,3.97
2023-01-29T05:31:45.297Z,3.83
2023-01-29T05:34:15.945Z,3.72
2023-01-29T05:36:43.492Z,3.95
2023-01-29T05:39:11.076Z,3.33
2023-01-29T05:41:38.630Z,3.70
2023-01-29T05:44:06.281Z,3.83
2023-01-29T05:46:33.875Z,3.72
2023-01-29T05:49:01.504Z,3.55
2023-01-29T05:51:29.998Z,3.90
2023-01-29T05:53:57.541Z,3.42
2023-01-29T05:56:25.831Z,3.30
2023-01-29T05:58:53.370Z,3.63
2023-01-29T06:01:23.364Z,3.97
2023-01-29T06:03:52.475Z,3.78
2023-01-29T06:06:20.204Z,4.15
2023-01-29T06:08:48.292Z,4.00
2023-01-29T06:11:18.368Z,3.92
2023-01-29T06:13:46.434Z,4.40
2023-01-29T06:16:14.331Z,4.20
2023-01-29T06:18:42.067Z,3.80
2023-01-29T06:21:12.241Z,4.20
2023-01-29T06:23:40.569Z,3.83
2023-01-29T06:26:12.541Z,4.00
2023-01-29T06:28:40.536Z,4.47
2023-01-29T06:31:27.493Z,4.85
2023-01-29T06:33:58.615Z,4.07
2023-01-29T06:36:26.254Z,3.97
2023-01-29T06:38:53.953Z,3.92
2023-01-29T06:41:27.189Z,3.58
2023-01-29T06:43:54.872Z,4.30
2023-01-29T06:46:22.483Z,4.30
2023-01-29T06:48:50.282Z,4.45
2023-01-29T06:51:18.192Z,4.18
2023-01-29T06:53:46.618Z,5.07
2023-01-29T06:56:14.591Z,7.07
2023-01-29T06:58:43.692Z,4.47
2023-01-29T07:01:22.139Z,4.00
2023-01-29T07:03:57.935Z,4.35
2023-01-29T07:06:30.035Z,4.97
2023-01-29T07:08:58.617Z,4.43
2023-01-29T07:11:26.367Z,4.30
2023-01-29T07:13:54.040Z,4.97
2023-01-29T07:16:21.771Z,4.38
2023-01-29T07:18:50.521Z,4.00
2023-01-29T07:21:18.067Z,4.75
2023-01-29T07:23:45.846Z,4.33
2023-01-29T07:26:13.438Z,5.03
2023-01-29T07:28:41.483Z,4.40
2023-01-29T07:31:12.041Z,4.25
2023-01-29T07:33:39.903Z,4.70
2023-01-29T07:36:13.283Z,4.50
2023-01-29T07:38:40.988Z,4.72
2023-01-29T07:41:10.461Z,4.90
2023-01-29T07:43:38.051Z,5.80
2023-01-29T07:46:05.893Z,5.95
2023-01-29T07:48:42.133Z,5.53
2023-01-29T07:51:35.886Z,5.80
2023-01-29T07:54:03.509Z,11.90
2023-01-29T07:56:31.048Z,6.30
2023-01-29T07:58:58.657Z,6.78
2023-01-29T08:01:35.104Z,5.57
2023-01-29T08:04:02.649Z,6.47
2023-01-29T08:06:30.215Z,6.75
2023-01-29T08:08:57.737Z,6.93
2023-01-29T08:11:26.401Z,7.28
2023-01-29T08:13:54.625Z,6.17
2023-01-29T08:16:22.263Z,6.78
2023-01-29T08:18:49.916Z,7.32
2023-01-29T08:21:17.491Z,6.95
2023-01-29T08:23:45.481Z,5.88
2023-01-29T08:26:12.982Z,5.77
2023-01-29T08:28:40.635Z,6.35
2023-01-29T08:31:17.975Z,6.63
2023-01-29T08:33:45.530Z,6.00
2023-01-29T08:39:03.495Z,5.87
2023-01-29T08:41:31.231Z,5.80
2023-01-29T08:44:00.660Z,5.78
2023-01-29T08:46:28.360Z,5.85
2023-01-29T08:48:56.143Z,6.07
2023-01-29T08:51:28.495Z,6.38
2023-01-29T08:53:56.110Z,6.60
2023-01-29T08:56:23.920Z,6.90
2023-01-29T08:58:51.600Z,6.57
2023-01-29T09:01:19.294Z,6.25
2023-01-29T09:03:47.332Z,6.50
2023-01-29T09:06:15.287Z,6.37
2023-01-29T09:08:42.960Z,10.25
2023-01-29T09:11:11.528Z,10.00
2023-01-29T09:16:18.680Z,10.52
2023-01-29T09:21:07.291Z,9.80
2023-01-29T09:34:03.954Z,9.40
2023-01-29T09:36:36.385Z,8.40
2023-01-29T09:39:07.493Z,8.60
2023-01-29T09:45:31.459Z,7.70
2023-01-29T09:52:33.260Z,8.80
2023-01-29T09:54:18.360Z,9.90
2023-01-29T09:57:06.437Z,8.00
2023-01-29T09:59:41.539Z,7.15
2023-01-29T10:02:42.267Z,8.77
2023-01-29T10:05:41.823Z,6.95
2023-01-29T10:08:30.962Z,5.53
2023-01-29T10:14:38.171Z,6.32
2023-01-29T10:17:39.623Z,4.85
2023-01-29T10:20:34.228Z,2.42
2023-01-29T10:23:12.830Z,4.00
2023-01-29T10:25:42.357Z,4.43
2023-01-29T10:28:21.377Z,5.40
2023-01-29T10:30:57.211Z,4.90
2023-01-29T10:33:49.196Z,4.82
2023-01-29T10:42:51.015Z,5.28
2023-01-29T10:45:47.630Z,4.75
2023-01-29T10:48:52.227Z,4.60
2023-01-29T10:51:53.349Z,4.50
2023-01-29T10:54:33.295Z,4.27
2023-01-29T10:57:29.251Z,4.63
2023-01-29T11:00:24.118Z,3.75
2023-01-29T11:02:53.690Z,4.50
2023-01-29T11:05:39.634Z,4.70
2023-01-29T11:11:05.895Z,5.45
2023-01-29T11:13:40.742Z,4.00
2023-01-29T11:16:12.590Z,4.35
2023-01-29T11:19:00.253Z,4.07
2023-01-29T11:21:53.900Z,2.83
2023-01-29T11:24:22.146Z,2.58
2023-01-29T11:26:53.515Z,5.10
2023-01-29T11:29:32.602Z,2.33
2023-01-29T11:32:03.797Z,1.83
2023-01-29T11:34:31.495Z,1.40
2023-01-29T11:37:05.348Z,1.98
2023-01-29T11:39:33.341Z,2.28
2023-01-29T11:42:05.394Z,1.88
2023-01-29T11:44:37.233Z,2.10
2023-01-29T11:47:21.618Z,2.30
2023-01-29T11:50:01.324Z,2.50
2023-01-29T11:52:40.546Z,2.55
2023-01-29T11:55:22.755Z,1.83
2023-01-29T11:58:36.967Z,2.45
2023-01-29T12:01:05.680Z,1.90
2023-01-29T12:03:50.027Z,2.00
2023-01-29T12:06:48.194Z,1.90
2023-01-29T12:09:18.460Z,1.65
2023-01-29T12:11:46.214Z,1.67
2023-01-29T12:14:34.452Z,1.75
2023-01-29T12:17:24.223Z,1.57
2023-01-29T12:19:59.191Z,1.77
2023-01-29T12:22:31.961Z,1.60
2023-01-29T12:25:13.633Z,1.58
2023-01-29T12:27:56.129Z,1.70
2023-01-29T12:30:31.874Z,1.80
2023-01-29T12:33:11.961Z,1.60
2023-01-29T12:35:48.443Z,1.30
2023-01-29T12:38:23.477Z,1.60
2023-01-29T12:40:57.140Z,1.23
2023-01-29T12:43:33.726Z,1.40
2023-01-29T12:46:02.421Z,1.10
2023-01-29T12:48:43.986Z,2.03
2023-01-29T12:51:17.123Z,1.75
2023-01-29T12:54:05.314Z,1.95
2023-01-29T12:57:10.507Z,1.70
2023-01-29T12:59:47.811Z,1.67
2023-01-29T13:06:47.693Z,1.60
2023-01-29T13:39:51.521Z,1.40
2023-01-29T13:42:51.797Z,1.92
2023-01-29T13:45:56.113Z,2.90
2023-01-29T13:48:58.022Z,1.70
2023-01-29T13:52:05.157Z,1.20
2023-01-29T14:02:01.686Z,1.70
2023-01-29T14:08:00.035Z,1.43
2023-01-29T14:24:31.953Z,1.73
2023-01-29T14:27:16.782Z,1.80
2023-01-29T14:37:01.466Z,2.80
2023-01-29T14:39:40.589Z,2.07
2023-01-29T14:42:35.830Z,2.80
2023-01-29T14:45:32.553Z,2.00
2023-01-29T14:48:13.797Z,1.80
2023-01-29T14:51:08.898Z,1.80
2023-01-29T14:54:19.392Z,2.60
2023-01-29T14:56:58.663Z,2.43
2023-01-29T14:59:59.002Z,1.98
2023-01-29T15:02:37.238Z,2.72
2023-01-29T15:05:09.745Z,3.63
2023-01-29T15:07:46.659Z,2.13
2023-01-29T15:10:26.485Z,2.00
2023-01-29T15:13:00.260Z,1.90
2023-01-29T15:15:37.701Z,1.80
2023-01-29T15:18:16.917Z,1.90
2023-01-29T15:21:05.571Z,2.42
2023-01-29T15:23:34.835Z,2.00
2023-01-29T15:26:12.590Z,2.03
2023-01-29T15:28:40.531Z,2.08
2023-01-29T15:31:13.922Z,2.20
2023-01-29T15:33:45.282Z,2.50
2023-01-29T15:36:22.759Z,2.00
2023-01-29T15:39:24.082Z,2.00
2023-01-29T15:42:10.810Z,2.33
2023-01-29T15:44:45.477Z,3.45
2023-01-29T15:47:14.383Z,2.55
2023-01-29T15:49:42.701Z,2.07
2023-01-29T15:52:20.665Z,2.95
2023-01-29T15:54:48.415Z,3.00
2023-01-29T15:57:25.427Z,3.15
2023-01-29T15:59:55.325Z,2.60
2023-01-29T16:02:39.942Z,3.77
2023-01-29T16:05:20.720Z,3.00
2023-01-29T16:07:50.131Z,2.58
2023-01-29T16:10:23.664Z,3.20
2023-01-29T16:12:52.933Z,2.45
2023-01-29T16:15:37.394Z,2.30
2023-01-29T16:18:21.738Z,2.60
2023-01-29T16:20:54.336Z,3.10
2023-01-29T16:23:29.635Z,2.30
2023-01-29T16:26:03.229Z,2.88
2023-01-29T16:28:31.105Z,3.00
2023-01-29T16:31:02.806Z,3.17
2023-01-29T16:33:38.599Z,3.40
2023-01-29T16:36:19.320Z,3.25
2023-01-29T16:38:54.448Z,3.35
2023-01-29T16:41:22.063Z,3.93
2023-01-29T16:43:52.182Z,4.75
2023-01-29T16:46:26.855Z,4.53
2023-01-29T16:48:58.626Z,4.40
2023-01-29T16:51:32.651Z,3.50
2023-01-29T16:54:22.566Z,4.50
2023-01-29T16:56:56.363Z,4.47
2023-01-29T16:59:33.251Z,4.90
2023-01-29T17:02:05.103Z,4.60
2023-01-29T17:04:41.870Z,4.20
2023-01-29T17:07:28.308Z,3.55
2023-01-29T17:10:04.428Z,3.53
2023-01-29T17:12:39.060Z,3.10
2023-01-29T17:15:44.514Z,3.40
2023-01-29T17:18:25.487Z,3.53
2023-01-29T17:20:56.355Z,3.38
2023-01-29T17:23:26.276Z,3.77
2023-01-29T17:25:54.085Z,3.75
2023-01-29T17:28:22.160Z,2.70
2023-01-29T17:31:05.163Z,2.70
2023-01-29T17:33:37.205Z,2.60
2023-01-29T17:36:05.363Z,2.83
2023-01-29T17:38:48.874Z,2.92
2023-01-29T17:41:47.146Z,3.13
2023-01-29T17:44:15.413Z,3.25
2023-01-29T17:46:43.596Z,3.20
2023-01-29T17:49:37.839Z,2.97
2023-01-29T17:52:34.251Z,2.90
2023-01-29T17:55:24.953Z,3.22
2023-01-29T17:57:53.738Z,3.17
2023-01-29T18:00:26.939Z,3.85
2023-01-29T18:03:03.565Z,3.63
2023-01-29T18:05:31.373Z,3.33
2023-01-29T18:08:05.465Z,3.50
2023-01-29T18:10:33.487Z,3.90
2023-01-29T18:13:01.280Z,4.68
2023-01-29T18:15:31.670Z,4.10
2023-01-29T18:20:51.312Z,4.65
2023-01-29T18:23:32.635Z,3.65
2023-01-29T18:26:02.353Z,4.60
2023-01-29T18:28:34.901Z,3.80
2023-01-29T18:31:03.500Z,3.85
2023-01-29T18:33:31.500Z,4.53
2023-01-29T18:35:59.205Z,4.00
2023-01-29T18:38:26.955Z,3.95
2023-01-29T18:41:04.139Z,3.90
2023-01-29T18:43:34.172Z,4.28
2023-01-29T18:46:01.825Z,4.07
2023-01-29T18:48:32.680Z,3.33
2023-01-29T18:51:00.536Z,3.95
2023-01-29T18:53:28.178Z,3.43
2023-01-29T18:56:04.339Z,4.10
2023-01-29T18:58:36.966Z,3.40
2023-01-29T19:01:09.658Z,4.15
2023-01-29T19:03:39.025Z,4.50
2023-01-29T19:06:12.468Z,4.37
2023-01-29T19:08:43.070Z,3.90
2023-01-29T19:11:12.849Z,3.78
2023-01-29T19:13:42.658Z,3.67
2023-01-29T19:16:12.893Z,3.35
2023-01-29T19:18:43.648Z,3.17
2023-01-29T19:21:14.662Z,3.70
2023-01-29T19:23:43.837Z,3.28
2023-01-29T19:26:12.208Z,3.03
2023-01-29T19:28:39.987Z,3.00
2023-01-29T19:31:09.407Z,3.30
2023-01-29T19:33:37.075Z,3.10
2023-01-29T19:36:05.371Z,3.13
2023-01-29T19:38:33.793Z,3.03
2023-01-29T19:41:02.278Z,3.58
2023-01-29T19:43:33.320Z,3.57
2023-01-29T19:46:02.031Z,3.45
2023-01-29T19:48:29.932Z,5.45
2023-01-29T19:50:59.757Z,4.22
2023-01-29T19:53:31.422Z,4.57
2023-01-29T19:56:05.804Z,4.40
2023-01-29T19:58:33.995Z,5.07
2023-01-29T20:01:07.431Z,5.88
2023-01-29T20:03:35.096Z,5.50
2023-01-29T20:06:04.023Z,5.72
2023-01-29T20:08:32.228Z,4.10
2023-01-29T20:11:00.181Z,5.53
2023-01-29T20:13:27.973Z,5.95
2023-01-29T20:15:56.106Z,6.22
2023-01-29T20:18:23.983Z,6.28
2023-01-29T20:20:53.568Z,6.55
2023-01-29T20:23:36.632Z,6.93
2023-01-29T20:26:05.569Z,7.22
2023-01-29T20:28:33.610Z,7.30
2023-01-29T20:31:01.184Z,7.25
2023-01-29T20:33:29.221Z,7.93
2023-01-29T20:36:02.272Z,7.23
2023-01-29T20:38:34.082Z,7.95
2023-01-29T20:41:15.100Z,7.80
2023-01-29T20:43:43.596Z,7.43
2023-01-29T20:46:11.264Z,8.35
2023-01-29T20:48:39.081Z,7.60
2023-01-29T20:51:19.486Z,8.25
2023-01-29T20:53:48.203Z,8.13
2023-01-29T20:56:16.971Z,7.53
2023-01-29T20:58:46.870Z,7.55
2023-01-29T21:01:17.781Z,8.13
2023-01-29T21:03:46.748Z,7.97
2023-01-29T21:06:14.896Z,8.43
2023-01-29T21:08:45.408Z,8.45
2023-01-29T21:11:15.327Z,8.68
2023-01-29T21:13:44.126Z,8.75
2023-01-29T21:16:11.775Z,8.30
2023-01-29T21:18:39.417Z,7.70
2023-01-29T21:21:07.039Z,7.82
2023-01-29T21:23:34.636Z,8.40
2023-01-29T21:26:03.919Z,8.40
2023-01-29T21:28:31.876Z,7.83
2023-01-29T21:31:08.484Z,7.38
2023-01-29T21:33:37.014Z,7.18
2023-01-29T21:36:05.318Z,7.03
2023-01-29T21:38:33.310Z,7.68
2023-01-29T21:41:02.500Z,6.83
2023-01-29T21:43:30.155Z,6.25
2023-01-29T21:46:00.726Z,6.47
2023-01-29T21:48:29.451Z,6.03
2023-01-29T21:50:57.107Z,6.50
2023-01-29T21:53:24.668Z,6.00
2023-01-29T21:55:52.329Z,6.07
2023-01-29T21:58:23.301Z,5.97
2023-01-29T22:00:50.861Z,5.95
2023-01-29T22:03:18.498Z,6.72
2023-01-29T22:05:46.020Z,5.40
2023-01-29T22:08:13.551Z,5.40
2023-01-29T22:10:41.240Z,5.72
2023-01-29T22:13:09.018Z,5.82
2023-01-29T22:15:36.623Z,6.35
2023-01-29T22:18:04.374Z,5.45
2023-01-29T22:20:31.905Z,5.17
2023-01-29T22:23:02.503Z,5.32
2023-01-29T22:25:30.324Z,5.57
2023-01-29T22:27:58.435Z,5.40
2023-01-29T22:30:26.081Z,5.80
2023-01-29T22:32:53.691Z,5.07
2023-01-29T22:35:21.220Z,4.68
2023-01-29T22:37:48.748Z,5.05
2023-01-29T22:40:16.755Z,4.80
2023-01-29T22:42:44.492Z,4.95
2023-01-29T22:45:12.632Z,4.60
2023-01-29T22:47:40.352Z,4.60
2023-01-29T22:50:08.263Z,4.20
2023-01-29T22:52:39.408Z,4.53
2023-01-29T22:55:09.071Z,4.68
2023-01-29T22:57:37.557Z,4.53
2023-01-29T23:00:11.346Z,4.43
2023-01-29T23:02:38.987Z,4.82
2023-01-29T23:05:07.252Z,5.53
2023-01-29T23:07:34.855Z,5.10
2023-01-29T23:10:02.596Z,5.23
2023-01-29T23:12:32.284Z,5.80
2023-01-29T23:14:59.882Z,6.15
2023-01-29T23:17:27.582Z,6.90
2023-01-29T23:19:55.117Z,7.93
2023-01-29T23:22:22.652Z,7.13
2023-01-29T23:24:50.231Z,7.00
2023-01-29T23:27:17.787Z,6.40
2023-01-29T23:29:49.166Z,6.38
2023-01-29T23:32:19.797Z,6.60
2023-01-29T23:34:47.692Z,6.30
2023-01-29T23:37:18.262Z,6.38
2023-01-29T23:39:45.843Z,6.60
2023-01-29T23:42:13.477Z,6.35
2023-01-29T23:44:41.723Z,5.85
2023-01-29T23:47:09.603Z,5.87
2023-01-29T23:49:37.478Z,5.10
2023-01-29T23:52:05.250Z,4.57
2023-01-29T23:54:32.779Z,4.55
2023-01-29T23:57:00.320Z,4.60
2023-01-29T23:59:29.176Z,4.27
